sensor_id;sensor_type;location;lat;lon;timestamp;P1;durP1;ratioP1;P2;durP2;ratioP2
38264;SDS011;24062;47.480;8.768;2022-08-19T00:00:50;14.77;;;13.27;;
38264;SDS011;24062;47.480;8.768;2022-08-19T00:03:17;13.03;;;11.80;;
38264;SDS011;24062;47.480;8.768;2022-08-19T00:05:44;13.40;;;12.20;;
38264;SDS011;24062;47.480;8.768;2022-08-19T00:08:11;14.63;;;12.10;;
38264;SDS011;24062;47.480;8.768;2022-08-19T00:10:39;13.47;;;12.17;;
38264;SDS011;24062;47.480;8.768;2022-08-19T00:13:06;13.23;;;12.03;;
38264;SDS011;24062;47.480;8.768;2022-08-19T00:15:33;13.27;;;12.10;;
38264;SDS011;24062;47.480;8.768;2022-08-19T00:18:00;16.10;;;12.83;;
38264;SDS011;24062;47.480;8.768;2022-08-19T00:20:27;13.23;;;12.00;;
38264;SDS011;24062;47.480;8.768;2022-08-19T00:22:54;13.07;;;11.87;;
38264;SDS011;24062;47.480;8.768;2022-08-19T00:25:20;13.40;;;11.57;;
38264;SDS011;24062;47.480;8.768;2022-08-19T00:27:49;11.33;;;10.33;;
38264;SDS011;24062;47.480;8.768;2022-08-19T00:30:16;11.07;;;9.97;;
38264;SDS011;24062;47.480;8.768;2022-08-19T00:32:43;10.50;;;9.63;;
38264;SDS011;24062;47.480;8.768;2022-08-19T00:35:10;10.53;;;9.40;;
38264;SDS011;24062;47.480;8.768;2022-08-19T00:37:37;10.57;;;9.67;;
38264;SDS011;24062;47.480;8.768;2022-08-19T00:40:08;11.10;;;10.20;;
38264;SDS011;24062;47.480;8.768;2022-08-19T00:42:37;10.60;;;9.63;;
38264;SDS011;24062;47.480;8.768;2022-08-19T00:45:08;10.40;;;9.50;;
38264;SDS011;24062;47.480;8.768;2022-08-19T00:47:38;9.37;;;8.67;;
38264;SDS011;24062;47.480;8.768;2022-08-19T00:50:05;11.90;;;9.80;;
38264;SDS011;24062;47.480;8.768;2022-08-19T00:52:38;10.57;;;9.67;;
38264;SDS011;24062;47.480;8.768;2022-08-19T00:55:11;10.40;;;9.40;;
38264;SDS011;24062;47.480;8.768;2022-08-19T00:57:44;11.40;;;10.27;;
38264;SDS011;24062;47.480;8.768;2022-08-19T01:00:16;10.37;;;9.47;;
38264;SDS011;24062;47.480;8.768;2022-08-19T01:02:44;11.33;;;10.33;;
38264;SDS011;24062;47.480;8.768;2022-08-19T01:05:13;10.77;;;9.70;;
38264;SDS011;24062;47.480;8.768;2022-08-19T01:07:45;10.07;;;9.30;;
38264;SDS011;24062;47.480;8.768;2022-08-19T01:10:14;8.77;;;8.17;;
38264;SDS011;24062;47.480;8.768;2022-08-19T01:12:44;10.33;;;9.43;;
38264;SDS011;24062;47.480;8.768;2022-08-19T01:15:12;10.40;;;9.60;;
38264;SDS011;24062;47.480;8.768;2022-08-19T01:17:45;9.73;;;8.90;;
38264;SDS011;24062;47.480;8.768;2022-08-19T01:20:13;9.43;;;8.73;;
38264;SDS011;24062;47.480;8.768;2022-08-19T01:22:45;11.07;;;8.73;;
38264;SDS011;24062;47.480;8.768;2022-08-19T01:25:13;10.27;;;9.10;;
38264;SDS011;24062;47.480;8.768;2022-08-19T01:27:41;9.40;;;8.60;;
38264;SDS011;24062;47.480;8.768;2022-08-19T01:30:10;11.27;;;10.17;;
38264;SDS011;24062;47.480;8.768;2022-08-19T01:32:39;10.43;;;9.50;;
38264;SDS011;24062;47.480;8.768;2022-08-19T01:35:06;10.97;;;9.97;;
38264;SDS011;24062;47.480;8.768;2022-08-19T01:37:41;10.40;;;9.40;;
38264;SDS011;24062;47.480;8.768;2022-08-19T01:40:11;11.00;;;9.43;;
38264;SDS011;24062;47.480;8.768;2022-08-19T01:42:38;11.67;;;10.50;;
38264;SDS011;24062;47.480;8.768;2022-08-19T01:45:06;11.47;;;10.27;;
38264;SDS011;24062;47.480;8.768;2022-08-19T01:47:34;10.00;;;9.03;;
38264;SDS011;24062;47.480;8.768;2022-08-19T01:50:02;12.00;;;10.27;;
38264;SDS011;24062;47.480;8.768;2022-08-19T01:52:30;10.50;;;9.50;;
38264;SDS011;24062;47.480;8.768;2022-08-19T01:54:58;10.30;;;9.50;;
38264;SDS011;24062;47.480;8.768;2022-08-19T01:57:25;10.20;;;9.20;;
38264;SDS011;24062;47.480;8.768;2022-08-19T01:59:52;11.40;;;10.30;;
38264;SDS011;24062;47.480;8.768;2022-08-19T02:02:19;10.50;;;9.60;;
38264;SDS011;24062;47.480;8.768;2022-08-19T02:04:46;11.00;;;9.67;;
38264;SDS011;24062;47.480;8.768;2022-08-19T02:07:13;11.17;;;10.17;;
38264;SDS011;24062;47.480;8.768;2022-08-19T02:09:40;11.67;;;10.43;;
38264;SDS011;24062;47.480;8.768;2022-08-19T02:12:08;11.67;;;10.67;;
38264;SDS011;24062;47.480;8.768;2022-08-19T02:14:35;11.70;;;10.60;;
38264;SDS011;24062;47.480;8.768;2022-08-19T02:17:03;13.83;;;11.57;;
38264;SDS011;24062;47.480;8.768;2022-08-19T02:19:30;11.30;;;10.30;;
38264;SDS011;24062;47.480;8.768;2022-08-19T02:21:58;10.70;;;9.70;;
38264;SDS011;24062;47.480;8.768;2022-08-19T02:24:25;10.70;;;9.80;;
38264;SDS011;24062;47.480;8.768;2022-08-19T02:26:54;12.27;;;11.17;;
38264;SDS011;24062;47.480;8.768;2022-08-19T02:29:22;10.37;;;9.47;;
38264;SDS011;24062;47.480;8.768;2022-08-19T02:31:49;9.90;;;9.10;;
38264;SDS011;24062;47.480;8.768;2022-08-19T02:34:16;9.23;;;8.53;;
38264;SDS011;24062;47.480;8.768;2022-08-19T02:36:43;11.20;;;10.10;;
38264;SDS011;24062;47.480;8.768;2022-08-19T02:39:10;11.10;;;8.97;;
38264;SDS011;24062;47.480;8.768;2022-08-19T02:41:36;10.30;;;9.40;;
38264;SDS011;24062;47.480;8.768;2022-08-19T02:44:03;10.17;;;9.27;;
38264;SDS011;24062;47.480;8.768;2022-08-19T02:46:32;10.10;;;9.20;;
38264;SDS011;24062;47.480;8.768;2022-08-19T02:49:02;9.77;;;8.97;;
38264;SDS011;24062;47.480;8.768;2022-08-19T02:51:31;10.70;;;9.80;;
38264;SDS011;24062;47.480;8.768;2022-08-19T02:54:08;11.80;;;10.70;;
38264;SDS011;24062;47.480;8.768;2022-08-19T02:56:38;12.10;;;11.00;;
38264;SDS011;24062;47.480;8.768;2022-08-19T02:59:06;10.40;;;9.50;;
38264;SDS011;24062;47.480;8.768;2022-08-19T03:01:38;11.70;;;10.70;;
38264;SDS011;24062;47.480;8.768;2022-08-19T03:04:06;13.30;;;11.97;;
38264;SDS011;24062;47.480;8.768;2022-08-19T03:06:36;10.87;;;9.97;;
38264;SDS011;24062;47.480;8.768;2022-08-19T03:09:03;9.43;;;8.70;;
38264;SDS011;24062;47.480;8.768;2022-08-19T03:11:31;11.87;;;10.70;;
38264;SDS011;24062;47.480;8.768;2022-08-19T03:13:59;11.60;;;10.50;;
38264;SDS011;24062;47.480;8.768;2022-08-19T03:16:28;11.23;;;10.13;;
38264;SDS011;24062;47.480;8.768;2022-08-19T03:18:59;11.90;;;10.70;;
38264;SDS011;24062;47.480;8.768;2022-08-19T03:21:28;11.57;;;10.50;;
38264;SDS011;24062;47.480;8.768;2022-08-19T03:23:58;11.13;;;10.03;;
38264;SDS011;24062;47.480;8.768;2022-08-19T03:26:27;11.13;;;10.03;;
38264;SDS011;24062;47.480;8.768;2022-08-19T03:28:54;13.70;;;12.30;;
38264;SDS011;24062;47.480;8.768;2022-08-19T03:31:22;12.43;;;11.07;;
38264;SDS011;24062;47.480;8.768;2022-08-19T03:33:50;12.10;;;10.97;;
38264;SDS011;24062;47.480;8.768;2022-08-19T03:36:19;13.47;;;11.13;;
38264;SDS011;24062;47.480;8.768;2022-08-19T03:38:49;12.20;;;11.00;;
38264;SDS011;24062;47.480;8.768;2022-08-19T03:41:21;13.33;;;11.60;;
38264;SDS011;24062;47.480;8.768;2022-08-19T03:43:49;16.93;;;11.73;;
38264;SDS011;24062;47.480;8.768;2022-08-19T03:46:17;15.67;;;14.07;;
38264;SDS011;24062;47.480;8.768;2022-08-19T03:48:50;21.47;;;19.13;;
38264;SDS011;24062;47.480;8.768;2022-08-19T03:51:22;15.77;;;13.20;;
38264;SDS011;24062;47.480;8.768;2022-08-19T03:53:50;17.23;;;14.00;;
38264;SDS011;24062;47.480;8.768;2022-08-19T03:56:18;16.30;;;13.40;;
38264;SDS011;24062;47.480;8.768;2022-08-19T03:58:46;14.50;;;12.57;;
38264;SDS011;24062;47.480;8.768;2022-08-19T04:01:14;15.07;;;12.47;;
38264;SDS011;24062;47.480;8.768;2022-08-19T04:03:42;14.17;;;12.67;;
38264;SDS011;24062;47.480;8.768;2022-08-19T04:06:11;20.50;;;15.43;;
38264;SDS011;24062;47.480;8.768;2022-08-19T04:08:41;19.87;;;14.63;;
38264;SDS011;24062;47.480;8.768;2022-08-19T04:11:10;22.03;;;17.17;;
38264;SDS011;24062;47.480;8.768;2022-08-19T04:13:39;21.17;;;17.30;;
38264;SDS011;24062;47.480;8.768;2022-08-19T04:16:07;22.53;;;15.70;;
38264;SDS011;24062;47.480;8.768;2022-08-19T04:18:35;20.97;;;17.00;;
38264;SDS011;24062;47.480;8.768;2022-08-19T04:21:04;21.97;;;16.80;;
38264;SDS011;24062;47.480;8.768;2022-08-19T04:23:32;20.53;;;16.83;;
38264;SDS011;24062;47.480;8.768;2022-08-19T04:26:02;21.63;;;17.30;;
38264;SDS011;24062;47.480;8.768;2022-08-19T04:28:29;29.73;;;21.00;;
38264;SDS011;24062;47.480;8.768;2022-08-19T04:30:56;26.10;;;18.47;;
38264;SDS011;24062;47.480;8.768;2022-08-19T04:33:24;23.40;;;17.47;;
38264;SDS011;24062;47.480;8.768;2022-08-19T04:35:53;23.63;;;18.70;;
38264;SDS011;24062;47.480;8.768;2022-08-19T04:38:23;25.13;;;18.73;;
38264;SDS011;24062;47.480;8.768;2022-08-19T04:40:50;30.10;;;20.57;;
38264;SDS011;24062;47.480;8.768;2022-08-19T04:43:37;28.00;;;19.20;;
38264;SDS011;24062;47.480;8.768;2022-08-19T04:46:05;26.60;;;20.97;;
38264;SDS011;24062;47.480;8.768;2022-08-19T04:48:33;27.63;;;20.50;;
38264;SDS011;24062;47.480;8.768;2022-08-19T04:51:00;28.17;;;20.40;;
38264;SDS011;24062;47.480;8.768;2022-08-19T04:53:32;21.80;;;18.13;;
38264;SDS011;24062;47.480;8.768;2022-08-19T04:56:03;25.43;;;19.10;;
38264;SDS011;24062;47.480;8.768;2022-08-19T04:58:32;27.47;;;21.20;;
38264;SDS011;24062;47.480;8.768;2022-08-19T05:01:01;25.80;;;20.57;;
38264;SDS011;24062;47.480;8.768;2022-08-19T05:03:28;29.33;;;23.37;;
38264;SDS011;24062;47.480;8.768;2022-08-19T05:05:59;29.40;;;22.33;;
38264;SDS011;24062;47.480;8.768;2022-08-19T05:08:32;27.63;;;21.03;;
38264;SDS011;24062;47.480;8.768;2022-08-19T05:11:06;32.87;;;22.20;;
38264;SDS011;24062;47.480;8.768;2022-08-19T05:13:34;24.80;;;20.20;;
38264;SDS011;24062;47.480;8.768;2022-08-19T05:16:03;28.80;;;21.53;;
38264;SDS011;24062;47.480;8.768;2022-08-19T05:18:30;29.20;;;22.70;;
38264;SDS011;24062;47.480;8.768;2022-08-19T05:21:15;26.40;;;22.47;;
38264;SDS011;24062;47.480;8.768;2022-08-19T05:24:02;32.60;;;23.50;;
38264;SDS011;24062;47.480;8.768;2022-08-19T05:26:33;31.13;;;22.93;;
38264;SDS011;24062;47.480;8.768;2022-08-19T05:29:00;28.10;;;21.90;;
38264;SDS011;24062;47.480;8.768;2022-08-19T05:31:29;30.30;;;23.00;;
38264;SDS011;24062;47.480;8.768;2022-08-19T05:33:57;30.40;;;22.97;;
38264;SDS011;24062;47.480;8.768;2022-08-19T05:36:24;35.03;;;25.43;;
38264;SDS011;24062;47.480;8.768;2022-08-19T05:38:51;28.53;;;22.43;;
38264;SDS011;24062;47.480;8.768;2022-08-19T05:41:19;32.50;;;23.03;;
38264;SDS011;24062;47.480;8.768;2022-08-19T05:43:48;28.03;;;21.90;;
38264;SDS011;24062;47.480;8.768;2022-08-19T05:46:16;29.93;;;22.37;;
38264;SDS011;24062;47.480;8.768;2022-08-19T05:48:45;28.60;;;22.33;;
38264;SDS011;24062;47.480;8.768;2022-08-19T05:51:13;27.17;;;22.00;;
38264;SDS011;24062;47.480;8.768;2022-08-19T05:53:41;30.87;;;23.33;;
38264;SDS011;24062;47.480;8.768;2022-08-19T05:56:11;30.37;;;22.67;;
38264;SDS011;24062;47.480;8.768;2022-08-19T05:58:39;30.87;;;24.57;;
38264;SDS011;24062;47.480;8.768;2022-08-19T06:01:09;27.63;;;21.87;;
38264;SDS011;24062;47.480;8.768;2022-08-19T06:03:38;28.37;;;23.10;;
38264;SDS011;24062;47.480;8.768;2022-08-19T06:06:07;30.10;;;23.43;;
38264;SDS011;24062;47.480;8.768;2022-08-19T06:08:35;30.30;;;22.73;;
38264;SDS011;24062;47.480;8.768;2022-08-19T06:11:13;29.67;;;24.47;;
38264;SDS011;24062;47.480;8.768;2022-08-19T06:13:41;29.77;;;23.80;;
38264;SDS011;24062;47.480;8.768;2022-08-19T06:16:10;27.10;;;23.17;;
38264;SDS011;24062;47.480;8.768;2022-08-19T06:18:37;26.70;;;21.73;;
38264;SDS011;24062;47.480;8.768;2022-08-19T06:21:04;25.00;;;20.57;;
38264;SDS011;24062;47.480;8.768;2022-08-19T06:23:32;24.50;;;21.10;;
38264;SDS011;24062;47.480;8.768;2022-08-19T06:26:00;26.50;;;22.23;;
38264;SDS011;24062;47.480;8.768;2022-08-19T06:28:27;30.53;;;24.07;;
38264;SDS011;24062;47.480;8.768;2022-08-19T06:30:53;28.30;;;21.60;;
38264;SDS011;24062;47.480;8.768;2022-08-19T06:33:20;30.30;;;23.90;;
38264;SDS011;24062;47.480;8.768;2022-08-19T06:35:47;32.00;;;23.40;;
38264;SDS011;24062;47.480;8.768;2022-08-19T06:38:14;30.13;;;23.77;;
38264;SDS011;24062;47.480;8.768;2022-08-19T06:40:42;31.77;;;24.90;;
38264;SDS011;24062;47.480;8.768;2022-08-19T06:43:09;32.50;;;24.60;;
38264;SDS011;24062;47.480;8.768;2022-08-19T06:45:36;28.97;;;24.73;;
38264;SDS011;24062;47.480;8.768;2022-08-19T06:48:04;30.73;;;24.00;;
38264;SDS011;24062;47.480;8.768;2022-08-19T06:50:32;32.63;;;25.00;;
38264;SDS011;24062;47.480;8.768;2022-08-19T06:52:58;33.77;;;24.17;;
38264;SDS011;24062;47.480;8.768;2022-08-19T06:55:25;42.47;;;26.20;;
38264;SDS011;24062;47.480;8.768;2022-08-19T06:57:56;36.77;;;26.13;;
38264;SDS011;24062;47.480;8.768;2022-08-19T07:00:23;45.80;;;28.70;;
38264;SDS011;24062;47.480;8.768;2022-08-19T07:02:50;43.90;;;28.87;;
38264;SDS011;24062;47.480;8.768;2022-08-19T07:05:18;33.27;;;25.00;;
38264;SDS011;24062;47.480;8.768;2022-08-19T07:07:45;40.23;;;26.63;;
38264;SDS011;24062;47.480;8.768;2022-08-19T07:10:12;45.50;;;27.10;;
38264;SDS011;24062;47.480;8.768;2022-08-19T07:12:38;42.90;;;27.97;;
38264;SDS011;24062;47.480;8.768;2022-08-19T07:15:08;41.13;;;25.90;;
38264;SDS011;24062;47.480;8.768;2022-08-19T07:17:36;36.20;;;26.47;;
38264;SDS011;24062;47.480;8.768;2022-08-19T07:20:04;35.80;;;24.70;;
38264;SDS011;24062;47.480;8.768;2022-08-19T07:22:32;33.93;;;25.00;;
38264;SDS011;24062;47.480;8.768;2022-08-19T07:24:59;37.13;;;25.87;;
38264;SDS011;24062;47.480;8.768;2022-08-19T07:27:28;36.80;;;25.20;;
38264;SDS011;24062;47.480;8.768;2022-08-19T07:29:56;31.93;;;23.47;;
38264;SDS011;24062;47.480;8.768;2022-08-19T07:32:24;39.73;;;26.27;;
38264;SDS011;24062;47.480;8.768;2022-08-19T07:34:52;39.27;;;26.37;;
38264;SDS011;24062;47.480;8.768;2022-08-19T07:37:19;35.07;;;27.33;;
38264;SDS011;24062;47.480;8.768;2022-08-19T07:39:45;35.63;;;25.00;;
38264;SDS011;24062;47.480;8.768;2022-08-19T07:42:12;38.33;;;25.87;;
38264;SDS011;24062;47.480;8.768;2022-08-19T07:44:40;38.87;;;27.37;;
38264;SDS011;24062;47.480;8.768;2022-08-19T07:47:07;40.73;;;26.60;;
38264;SDS011;24062;47.480;8.768;2022-08-19T07:49:36;36.13;;;24.20;;
38264;SDS011;24062;47.480;8.768;2022-08-19T07:52:04;37.97;;;25.50;;
38264;SDS011;24062;47.480;8.768;2022-08-19T07:54:33;35.83;;;25.67;;
38264;SDS011;24062;47.480;8.768;2022-08-19T07:57:01;35.17;;;25.73;;
38264;SDS011;24062;47.480;8.768;2022-08-19T07:59:30;32.77;;;24.20;;
38264;SDS011;24062;47.480;8.768;2022-08-19T08:01:57;36.73;;;25.33;;
38264;SDS011;24062;47.480;8.768;2022-08-19T08:04:25;40.80;;;25.67;;
38264;SDS011;24062;47.480;8.768;2022-08-19T08:07:11;32.90;;;24.00;;
38264;SDS011;24062;47.480;8.768;2022-08-19T08:09:55;38.80;;;26.87;;
38264;SDS011;24062;47.480;8.768;2022-08-19T08:12:24;32.47;;;23.73;;
38264;SDS011;24062;47.480;8.768;2022-08-19T08:14:54;36.60;;;24.87;;
38264;SDS011;24062;47.480;8.768;2022-08-19T08:17:23;36.50;;;23.80;;
38264;SDS011;24062;47.480;8.768;2022-08-19T08:19:53;27.43;;;20.83;;
38264;SDS011;24062;47.480;8.768;2022-08-19T08:22:22;30.53;;;23.40;;
38264;SDS011;24062;47.480;8.768;2022-08-19T08:25:03;30.20;;;22.73;;
38264;SDS011;24062;47.480;8.768;2022-08-19T08:27:33;29.40;;;21.80;;
38264;SDS011;24062;47.480;8.768;2022-08-19T08:30:04;43.00;;;26.50;;
38264;SDS011;24062;47.480;8.768;2022-08-19T08:32:34;30.07;;;22.60;;
38264;SDS011;24062;47.480;8.768;2022-08-19T08:35:01;38.47;;;25.47;;
38264;SDS011;24062;47.480;8.768;2022-08-19T08:37:30;31.33;;;22.40;;
38264;SDS011;24062;47.480;8.768;2022-08-19T08:39:56;35.80;;;23.00;;
38264;SDS011;24062;47.480;8.768;2022-08-19T08:42:24;37.17;;;23.30;;
38264;SDS011;24062;47.480;8.768;2022-08-19T08:44:58;38.43;;;23.87;;
38264;SDS011;24062;47.480;8.768;2022-08-19T08:47:29;32.70;;;21.40;;
38264;SDS011;24062;47.480;8.768;2022-08-19T08:50:01;25.10;;;20.80;;
38264;SDS011;24062;47.480;8.768;2022-08-19T08:52:33;32.27;;;23.10;;
38264;SDS011;24062;47.480;8.768;2022-08-19T08:55:03;30.00;;;21.40;;
38264;SDS011;24062;47.480;8.768;2022-08-19T08:57:35;26.63;;;21.60;;
38264;SDS011;24062;47.480;8.768;2022-08-19T09:00:07;29.83;;;21.20;;
38264;SDS011;24062;47.480;8.768;2022-08-19T09:02:36;35.33;;;23.00;;
38264;SDS011;24062;47.480;8.768;2022-08-19T09:05:04;27.60;;;21.50;;
38264;SDS011;24062;47.480;8.768;2022-08-19T09:07:36;34.47;;;24.07;;
38264;SDS011;24062;47.480;8.768;2022-08-19T09:10:14;36.27;;;23.67;;
38264;SDS011;24062;47.480;8.768;2022-08-19T09:12:48;34.93;;;24.17;;
38264;SDS011;24062;47.480;8.768;2022-08-19T09:15:25;41.67;;;25.70;;
38264;SDS011;24062;47.480;8.768;2022-08-19T09:17:59;36.47;;;24.07;;
38264;SDS011;24062;47.480;8.768;2022-08-19T09:20:28;37.87;;;26.17;;
38264;SDS011;24062;47.480;8.768;2022-08-19T09:22:58;42.50;;;26.27;;
38264;SDS011;24062;47.480;8.768;2022-08-19T09:25:25;36.50;;;26.30;;
38264;SDS011;24062;47.480;8.768;2022-08-19T09:27:53;40.90;;;24.90;;
38264;SDS011;24062;47.480;8.768;2022-08-19T09:30:22;32.83;;;25.77;;
38264;SDS011;24062;47.480;8.768;2022-08-19T09:32:52;36.53;;;25.63;;
38264;SDS011;24062;47.480;8.768;2022-08-19T09:35:19;41.20;;;26.50;;
38264;SDS011;24062;47.480;8.768;2022-08-19T09:37:48;34.93;;;24.90;;
38264;SDS011;24062;47.480;8.768;2022-08-19T09:40:17;35.03;;;24.80;;
38264;SDS011;24062;47.480;8.768;2022-08-19T09:42:45;38.20;;;25.67;;
38264;SDS011;24062;47.480;8.768;2022-08-19T09:45:13;37.63;;;25.77;;
38264;SDS011;24062;47.480;8.768;2022-08-19T09:47:40;40.73;;;27.20;;
38264;SDS011;24062;47.480;8.768;2022-08-19T09:50:08;42.83;;;27.50;;
38264;SDS011;24062;47.480;8.768;2022-08-19T09:52:37;49.90;;;31.47;;
38264;SDS011;24062;47.480;8.768;2022-08-19T09:55:04;48.90;;;29.07;;
38264;SDS011;24062;47.480;8.768;2022-08-19T09:57:34;51.23;;;30.30;;
38264;SDS011;24062;47.480;8.768;2022-08-19T10:00:01;61.47;;;35.37;;
38264;SDS011;24062;47.480;8.768;2022-08-19T10:02:29;60.63;;;34.13;;
38264;SDS011;24062;47.480;8.768;2022-08-19T10:04:56;70.13;;;38.73;;
38264;SDS011;24062;47.480;8.768;2022-08-19T10:07:40;66.20;;;36.43;;
38264;SDS011;24062;47.480;8.768;2022-08-19T10:10:07;78.83;;;39.97;;
38264;SDS011;24062;47.480;8.768;2022-08-19T10:12:36;78.00;;;39.50;;
38264;SDS011;24062;47.480;8.768;2022-08-19T10:15:04;71.20;;;38.67;;
38264;SDS011;24062;47.480;8.768;2022-08-19T10:17:33;80.90;;;39.97;;
38264;SDS011;24062;47.480;8.768;2022-08-19T10:20:00;80.97;;;42.40;;
38264;SDS011;24062;47.480;8.768;2022-08-19T10:22:29;84.80;;;40.13;;
38264;SDS011;24062;47.480;8.768;2022-08-19T10:24:56;77.67;;;39.17;;
38264;SDS011;24062;47.480;8.768;2022-08-19T10:27:23;74.77;;;37.87;;
38264;SDS011;24062;47.480;8.768;2022-08-19T10:29:51;75.70;;;40.80;;
38264;SDS011;24062;47.480;8.768;2022-08-19T10:32:18;89.87;;;43.47;;
38264;SDS011;24062;47.480;8.768;2022-08-19T10:34:46;77.57;;;40.80;;
38264;SDS011;24062;47.480;8.768;2022-08-19T10:37:14;74.67;;;40.40;;
38264;SDS011;24062;47.480;8.768;2022-08-19T10:39:45;77.67;;;41.70;;
38264;SDS011;24062;47.480;8.768;2022-08-19T10:42:12;84.30;;;41.23;;
38264;SDS011;24062;47.480;8.768;2022-08-19T10:44:41;86.03;;;44.10;;
38264;SDS011;24062;47.480;8.768;2022-08-19T10:47:09;79.57;;;41.53;;
38264;SDS011;24062;47.480;8.768;2022-08-19T10:49:36;77.70;;;41.30;;
38264;SDS011;24062;47.480;8.768;2022-08-19T10:52:23;84.63;;;41.43;;
38264;SDS011;24062;47.480;8.768;2022-08-19T10:55:07;91.10;;;41.57;;
38264;SDS011;24062;47.480;8.768;2022-08-19T10:57:52;93.33;;;41.47;;
38264;SDS011;24062;47.480;8.768;2022-08-19T11:00:19;100.50;;;45.87;;
38264;SDS011;24062;47.480;8.768;2022-08-19T11:02:49;93.20;;;45.83;;
38264;SDS011;24062;47.480;8.768;2022-08-19T11:05:16;82.80;;;43.87;;
38264;SDS011;24062;47.480;8.768;2022-08-19T11:07:43;87.73;;;43.97;;
38264;SDS011;24062;47.480;8.768;2022-08-19T11:10:11;89.47;;;43.53;;
38264;SDS011;24062;47.480;8.768;2022-08-19T11:12:40;87.33;;;44.37;;
38264;SDS011;24062;47.480;8.768;2022-08-19T11:15:07;100.00;;;45.37;;
38264;SDS011;24062;47.480;8.768;2022-08-19T11:17:36;93.57;;;44.67;;
38264;SDS011;24062;47.480;8.768;2022-08-19T11:20:07;96.03;;;46.57;;
38264;SDS011;24062;47.480;8.768;2022-08-19T11:22:35;96.83;;;45.87;;
38264;SDS011;24062;47.480;8.768;2022-08-19T11:25:02;92.27;;;45.77;;
38264;SDS011;24062;47.480;8.768;2022-08-19T11:27:30;98.60;;;45.30;;
38264;SDS011;24062;47.480;8.768;2022-08-19T11:29:57;98.73;;;46.40;;
38264;SDS011;24062;47.480;8.768;2022-08-19T11:32:24;85.07;;;42.57;;
38264;SDS011;24062;47.480;8.768;2022-08-19T11:34:51;84.97;;;41.97;;
38264;SDS011;24062;47.480;8.768;2022-08-19T11:37:19;91.17;;;43.47;;
38264;SDS011;24062;47.480;8.768;2022-08-19T11:39:46;97.23;;;44.53;;
38264;SDS011;24062;47.480;8.768;2022-08-19T11:42:13;97.17;;;43.37;;
38264;SDS011;24062;47.480;8.768;2022-08-19T11:44:57;86.33;;;42.37;;
38264;SDS011;24062;47.480;8.768;2022-08-19T11:47:24;81.20;;;42.50;;
38264;SDS011;24062;47.480;8.768;2022-08-19T11:49:51;79.17;;;41.67;;
38264;SDS011;24062;47.480;8.768;2022-08-19T11:52:19;89.67;;;45.90;;
38264;SDS011;24062;47.480;8.768;2022-08-19T11:54:46;85.87;;;42.37;;
38264;SDS011;24062;47.480;8.768;2022-08-19T11:57:13;99.50;;;43.63;;
38264;SDS011;24062;47.480;8.768;2022-08-19T11:59:42;90.90;;;46.30;;
38264;SDS011;24062;47.480;8.768;2022-08-19T12:02:13;85.10;;;42.40;;
38264;SDS011;24062;47.480;8.768;2022-08-19T12:04:40;94.10;;;46.47;;
38264;SDS011;24062;47.480;8.768;2022-08-19T12:07:07;93.00;;;44.80;;
38264;SDS011;24062;47.480;8.768;2022-08-19T12:09:35;97.20;;;45.73;;
38264;SDS011;24062;47.480;8.768;2022-08-19T12:12:04;95.83;;;47.10;;
38264;SDS011;24062;47.480;8.768;2022-08-19T12:14:31;103.53;;;46.60;;
38264;SDS011;24062;47.480;8.768;2022-08-19T12:16:58;105.97;;;50.00;;
38264;SDS011;24062;47.480;8.768;2022-08-19T12:19:26;123.53;;;51.63;;
38264;SDS011;24062;47.480;8.768;2022-08-19T12:21:57;114.47;;;52.17;;
38264;SDS011;24062;47.480;8.768;2022-08-19T12:24:26;103.90;;;49.63;;
38264;SDS011;24062;47.480;8.768;2022-08-19T12:26:55;124.43;;;55.00;;
38264;SDS011;24062;47.480;8.768;2022-08-19T12:29:23;113.13;;;50.53;;
38264;SDS011;24062;47.480;8.768;2022-08-19T12:31:53;105.27;;;48.93;;
38264;SDS011;24062;47.480;8.768;2022-08-19T12:34:26;123.47;;;52.30;;
38264;SDS011;24062;47.480;8.768;2022-08-19T12:36:55;100.90;;;48.47;;
38264;SDS011;24062;47.480;8.768;2022-08-19T12:39:22;112.03;;;48.57;;
38264;SDS011;24062;47.480;8.768;2022-08-19T12:41:49;105.03;;;49.80;;
38264;SDS011;24062;47.480;8.768;2022-08-19T12:44:18;105.47;;;48.20;;
38264;SDS011;24062;47.480;8.768;2022-08-19T12:46:46;95.57;;;46.47;;
38264;SDS011;24062;47.480;8.768;2022-08-19T12:49:14;98.20;;;47.50;;
38264;SDS011;24062;47.480;8.768;2022-08-19T12:51:41;92.07;;;45.80;;
38264;SDS011;24062;47.480;8.768;2022-08-19T12:54:08;84.60;;;45.57;;
38264;SDS011;24062;47.480;8.768;2022-08-19T12:56:36;100.87;;;47.57;;
38264;SDS011;24062;47.480;8.768;2022-08-19T12:59:03;86.40;;;44.80;;
38264;SDS011;24062;47.480;8.768;2022-08-19T13:01:34;90.43;;;45.63;;
38264;SDS011;24062;47.480;8.768;2022-08-19T13:04:01;96.23;;;45.30;;
38264;SDS011;24062;47.480;8.768;2022-08-19T13:06:28;89.77;;;44.37;;
38264;SDS011;24062;47.480;8.768;2022-08-19T13:08:56;88.33;;;42.90;;
38264;SDS011;24062;47.480;8.768;2022-08-19T13:11:23;79.13;;;43.00;;
38264;SDS011;24062;47.480;8.768;2022-08-19T13:13:50;105.47;;;45.47;;
38264;SDS011;24062;47.480;8.768;2022-08-19T13:16:20;82.53;;;44.57;;
38264;SDS011;24062;47.480;8.768;2022-08-19T13:18:48;81.73;;;42.83;;
38264;SDS011;24062;47.480;8.768;2022-08-19T13:21:17;80.00;;;43.67;;
38264;SDS011;24062;47.480;8.768;2022-08-19T13:23:46;72.13;;;41.60;;
38264;SDS011;24062;47.480;8.768;2022-08-19T13:26:13;79.87;;;43.47;;
38264;SDS011;24062;47.480;8.768;2022-08-19T13:28:40;66.97;;;42.27;;
38264;SDS011;24062;47.480;8.768;2022-08-19T13:31:26;69.90;;;41.93;;
38264;SDS011;24062;47.480;8.768;2022-08-19T13:34:13;71.50;;;41.57;;
38264;SDS011;24062;47.480;8.768;2022-08-19T13:36:41;68.10;;;41.10;;
38264;SDS011;24062;47.480;8.768;2022-08-19T13:39:08;81.60;;;43.27;;
38264;SDS011;24062;47.480;8.768;2022-08-19T13:41:36;78.20;;;43.40;;
38264;SDS011;24062;47.480;8.768;2022-08-19T13:44:04;81.93;;;45.07;;
38264;SDS011;24062;47.480;8.768;2022-08-19T13:46:32;83.47;;;42.37;;
38264;SDS011;24062;47.480;8.768;2022-08-19T13:48:59;78.13;;;44.13;;
38264;SDS011;24062;47.480;8.768;2022-08-19T13:51:27;68.67;;;43.47;;
38264;SDS011;24062;47.480;8.768;2022-08-19T13:53:54;69.77;;;42.50;;
38264;SDS011;24062;47.480;8.768;2022-08-19T13:56:21;68.53;;;40.77;;
38264;SDS011;24062;47.480;8.768;2022-08-19T13:58:48;77.47;;;44.57;;
38264;SDS011;24062;47.480;8.768;2022-08-19T14:01:18;71.97;;;42.67;;
38264;SDS011;24062;47.480;8.768;2022-08-19T14:03:46;79.67;;;45.40;;
38264;SDS011;24062;47.480;8.768;2022-08-19T14:06:14;64.97;;;41.17;;
38264;SDS011;24062;47.480;8.768;2022-08-19T14:08:43;72.57;;;42.73;;
38264;SDS011;24062;47.480;8.768;2022-08-19T14:11:10;75.03;;;41.67;;
38264;SDS011;24062;47.480;8.768;2022-08-19T14:13:37;67.50;;;43.13;;
38264;SDS011;24062;47.480;8.768;2022-08-19T14:16:06;66.50;;;42.30;;
38264;SDS011;24062;47.480;8.768;2022-08-19T14:18:33;73.43;;;45.10;;
38264;SDS011;24062;47.480;8.768;2022-08-19T14:21:01;64.10;;;40.27;;
38264;SDS011;24062;47.480;8.768;2022-08-19T14:23:29;63.90;;;41.13;;
38264;SDS011;24062;47.480;8.768;2022-08-19T14:26:04;57.90;;;39.90;;
38264;SDS011;24062;47.480;8.768;2022-08-19T14:28:31;58.10;;;38.10;;
38264;SDS011;24062;47.480;8.768;2022-08-19T14:30:58;53.73;;;36.20;;
38264;SDS011;24062;47.480;8.768;2022-08-19T14:33:25;57.90;;;38.63;;